createdAt,value
2023-03-12T00:00:06.313Z,8.30
2023-03-12T00:01:06.188Z,8.90
2023-03-12T00:02:06.224Z,8.10
2023-03-12T00:03:06.160Z,7.80
2023-03-12T00:04:06.216Z,9.00
2023-03-12T00:05:06.182Z,8.20
2023-03-12T00:06:13.638Z,8.30
2023-03-12T00:07:06.131Z,9.90
2023-03-12T00:08:06.110Z,8.90
2023-03-12T00:09:06.117Z,8.70
2023-03-12T00:10:06.096Z,8.20
2023-03-12T00:11:06.121Z,8.60
2023-03-12T00:12:06.106Z,8.50
2023-03-12T00:13:06.019Z,8.60
2023-03-12T00:14:16.199Z,8.90
2023-03-12T00:15:13.606Z,8.30
2023-03-12T00:16:06.033Z,8.30
2023-03-12T00:17:06.002Z,7.80
2023-03-12T00:18:06.097Z,8.60
2023-03-12T00:19:05.971Z,7.80
2023-03-12T00:20:05.974Z,7.90
2023-03-12T00:21:05.979Z,7.10
2023-03-12T00:22:05.973Z,7.60
2023-03-12T00:23:05.959Z,7.30
2023-03-12T00:24:05.905Z,7.50
2023-03-12T00:25:05.887Z,6.70
2023-03-12T00:26:05.911Z,7.30
2023-03-12T00:27:05.881Z,6.80
2023-03-12T00:28:05.858Z,7.70
2023-03-12T00:29:05.828Z,7.90
2023-03-12T00:30:05.872Z,7.60
2023-03-12T00:31:05.830Z,9.00
2023-03-12T00:32:05.866Z,8.40
2023-03-12T00:33:05.871Z,7.80
2023-03-12T00:34:05.771Z,8.40
2023-03-12T00:35:05.758Z,8.70
2023-03-12T00:36:05.829Z,7.10
2023-03-12T00:37:05.706Z,7.40
2023-03-12T00:38:05.727Z,7.60
2023-03-12T00:39:05.742Z,7.40
2023-03-12T00:40:05.678Z,7.20
2023-03-12T00:41:05.684Z,7.30
2023-03-12T00:42:05.731Z,7.70
2023-03-12T00:43:05.648Z,7.10
2023-03-12T00:44:05.653Z,7.40
2023-03-12T00:45:05.726Z,8.50
2023-03-12T00:46:05.595Z,8.80
2023-03-12T00:47:05.600Z,9.00
2023-03-12T00:48:05.606Z,8.80
2023-03-12T00:49:05.552Z,8.20
2023-03-12T00:50:05.572Z,8.20
2023-03-12T00:51:05.581Z,8.50
2023-03-12T00:52:05.522Z,8.40
2023-03-12T00:53:05.509Z,8.30
2023-03-12T00:54:05.545Z,8.00
2023-03-12T00:55:05.614Z,8.00
2023-03-12T00:56:05.477Z,8.70
2023-03-12T00:57:05.491Z,8.20
2023-03-12T00:58:05.452Z,8.00
2023-03-12T00:59:05.423Z,8.80
2023-03-12T01:00:05.466Z,7.90
2023-03-12T01:01:05.492Z,7.90
2023-03-12T01:02:05.420Z,8.00
2023-03-12T01:03:05.447Z,8.00
2023-03-12T01:04:05.379Z,7.40
2023-03-12T01:05:05.340Z,7.00
2023-03-12T01:06:05.414Z,7.60
2023-03-12T01:07:05.336Z,7.50
2023-03-12T01:08:05.426Z,8.40
2023-03-12T01:09:05.355Z,6.70
2023-03-12T01:10:05.288Z,7.30
2023-03-12T01:11:05.290Z,7.20
2023-03-12T01:12:05.323Z,7.10
2023-03-12T01:13:05.264Z,7.20
2023-03-12T01:14:05.259Z,7.30
2023-03-12T01:15:05.368Z,7.30
2023-03-12T01:16:05.304Z,7.10
2023-03-12T01:17:05.352Z,7.10
2023-03-12T01:18:05.301Z,6.90
2023-03-12T01:19:05.171Z,7.50
2023-03-12T01:20:05.170Z,6.80
2023-03-12T01:21:05.216Z,6.80
2023-03-12T01:22:05.169Z,7.70
2023-03-12T01:23:05.143Z,7.40
2023-03-12T01:24:05.175Z,7.60
2023-03-12T01:25:05.125Z,7.20
2023-03-12T01:26:05.081Z,7.70
2023-03-12T01:27:05.122Z,7.60
2023-03-12T01:28:05.064Z,7.50
2023-03-12T01:29:05.063Z,7.90
2023-03-12T01:30:05.125Z,8.30
2023-03-12T01:31:05.039Z,8.10
2023-03-12T01:32:05.033Z,7.90
2023-03-12T01:33:05.045Z,9.10
2023-03-12T01:34:04.989Z,8.30
2023-03-12T01:35:05.038Z,8.60
2023-03-12T01:36:05.205Z,7.80
2023-03-12T01:37:04.999Z,8.20
2023-03-12T01:38:04.958Z,8.80
2023-03-12T01:39:04.971Z,8.90
2023-03-12T01:40:04.909Z,8.80
2023-03-12T01:41:04.887Z,8.20
2023-03-12T01:42:04.950Z,7.70
2023-03-12T01:43:04.857Z,8.90
2023-03-12T01:44:04.909Z,8.00
2023-03-12T01:45:04.889Z,7.90
2023-03-12T01:46:04.932Z,8.20
2023-03-12T01:47:04.809Z,8.60
2023-03-12T01:48:04.824Z,7.60
2023-03-12T01:49:04.786Z,7.60
2023-03-12T01:50:04.775Z,8.40
2023-03-12T01:51:04.843Z,8.30
2023-03-12T01:52:04.768Z,8.20
2023-03-12T01:53:04.751Z,8.70
2023-03-12T01:54:04.792Z,8.90
2023-03-12T01:55:04.698Z,9.20
2023-03-12T01:56:04.683Z,8.60
2023-03-12T01:57:04.694Z,8.90
2023-03-12T01:58:04.650Z,9.00
2023-03-12T01:59:04.687Z,8.70
2023-03-12T02:00:04.676Z,8.90
2023-03-12T02:01:04.708Z,8.90
2023-03-12T02:02:04.623Z,8.50
2023-03-12T02:03:04.645Z,8.10
2023-03-12T02:04:04.636Z,9.70
2023-03-12T02:05:04.594Z,8.90
2023-03-12T02:06:04.703Z,9.10
2023-03-12T02:07:04.555Z,8.60
2023-03-12T02:08:04.516Z,8.70
2023-03-12T02:09:04.562Z,8.90
2023-03-12T02:10:04.494Z,9.20
2023-03-12T02:11:04.559Z,9.40
2023-03-12T02:12:04.525Z,9.60
2023-03-12T02:13:04.476Z,8.60
2023-03-12T02:14:04.448Z,9.50
2023-03-12T02:15:04.524Z,9.50
2023-03-12T02:16:04.487Z,9.80
2023-03-12T02:17:04.493Z,9.90
2023-03-12T02:18:04.487Z,8.90
2023-03-12T02:19:04.443Z,9.20
2023-03-12T02:20:04.424Z,9.70
2023-03-12T02:21:04.455Z,9.40
2023-03-12T02:22:04.347Z,9.30
2023-03-12T02:23:04.446Z,9.50
2023-03-12T02:24:04.424Z,9.60
2023-03-12T02:25:04.305Z,9.60
2023-03-12T02:26:04.297Z,9.20
2023-03-12T02:27:04.364Z,9.60
2023-03-12T02:28:04.276Z,8.80
2023-03-12T02:29:04.318Z,9.60
2023-03-12T02:30:04.299Z,9.30
2023-03-12T02:31:04.269Z,9.30
2023-03-12T02:32:04.380Z,9.70
2023-03-12T02:33:04.253Z,9.80
2023-03-12T02:34:04.208Z,9.10
2023-03-12T02:35:04.165Z,9.40
2023-03-12T02:36:04.258Z,9.60
2023-03-12T02:37:04.185Z,9.40
2023-03-12T02:38:04.167Z,9.20
2023-03-12T02:39:04.195Z,9.40
2023-03-12T02:40:04.105Z,8.90
2023-03-12T02:41:04.092Z,9.30
2023-03-12T02:42:04.178Z,9.50
2023-03-12T02:43:04.075Z,8.80
2023-03-12T02:44:04.100Z,8.80
2023-03-12T02:45:04.115Z,8.90
2023-03-12T02:46:04.086Z,9.00
2023-03-12T02:47:04.048Z,9.00
2023-03-12T02:48:04.101Z,9.50
2023-03-12T02:49:04.028Z,8.70
2023-03-12T02:50:03.990Z,8.90
2023-03-12T02:51:04.033Z,8.40
2023-03-12T02:52:04.010Z,8.90
2023-03-12T02:53:03.952Z,8.60
2023-03-12T02:54:03.993Z,8.70
2023-03-12T02:55:03.925Z,9.70
2023-03-12T02:56:03.920Z,8.50
2023-03-12T02:57:03.982Z,8.50
2023-03-12T02:58:03.884Z,8.70
2023-03-12T02:59:04.543Z,9.10
2023-03-12T03:00:03.900Z,8.50
2023-03-12T03:01:03.874Z,8.80
2023-03-12T03:02:03.848Z,7.90
2023-03-12T03:03:03.917Z,8.70
2023-03-12T03:04:03.926Z,9.10
2023-03-12T03:05:03.803Z,9.00
2023-03-12T03:06:03.842Z,9.00
2023-03-12T03:07:03.820Z,8.10
2023-03-12T03:08:03.763Z,9.10
2023-03-12T03:09:03.802Z,9.00
2023-03-12T03:10:03.771Z,8.60
2023-03-12T03:11:03.871Z,8.90
2023-03-12T03:12:03.867Z,8.30
2023-03-12T03:13:03.681Z,8.50
2023-03-12T03:14:03.685Z,8.90
2023-03-12T03:15:04.118Z,8.20
2023-03-12T03:16:03.667Z,8.40
2023-03-12T03:17:03.676Z,9.10
2023-03-12T03:18:03.671Z,8.40
2023-03-12T03:19:03.604Z,10.10
2023-03-12T03:20:03.596Z,9.20
2023-03-12T03:21:03.630Z,8.50
2023-03-12T03:22:03.572Z,8.80
2023-03-12T03:23:03.619Z,8.50
2023-03-12T03:24:03.612Z,9.20
2023-03-12T03:25:03.579Z,8.70
2023-03-12T03:26:03.541Z,8.50
2023-03-12T03:27:03.570Z,9.20
2023-03-12T03:28:03.491Z,9.60
2023-03-12T03:29:03.532Z,8.90
2023-03-12T03:30:03.549Z,8.20
2023-03-12T03:31:03.567Z,8.40
2023-03-12T03:32:03.470Z,8.80
2023-03-12T03:33:03.430Z,9.30
2023-03-12T03:34:03.440Z,8.40
2023-03-12T03:35:03.428Z,8.10
2023-03-12T03:36:03.403Z,8.40
2023-03-12T03:37:03.377Z,8.40
2023-03-12T03:38:03.371Z,8.60
2023-03-12T03:39:03.387Z,8.70
2023-03-12T03:40:03.353Z,8.20
2023-03-12T03:41:03.370Z,8.90
2023-03-12T03:42:03.334Z,8.60
2023-03-12T03:43:03.375Z,8.60
2023-03-12T03:44:03.378Z,8.40
2023-03-12T03:45:03.291Z,9.00
2023-03-12T03:46:03.615Z,8.80
2023-03-12T03:47:03.286Z,9.20
2023-03-12T03:48:03.267Z,9.00
2023-03-12T03:49:03.384Z,9.20
2023-03-12T03:50:03.266Z,9.30
2023-03-12T03:51:03.263Z,8.70
2023-03-12T03:52:03.194Z,9.00
2023-03-12T03:53:03.256Z,9.10
2023-03-12T03:54:03.165Z,9.60
2023-03-12T03:55:03.165Z,9.20
2023-03-12T03:56:03.164Z,8.80
2023-03-12T03:57:03.143Z,8.90
2023-03-12T03:58:03.116Z,9.30
2023-03-12T03:59:03.136Z,9.00
2023-03-12T04:00:03.870Z,9.20
2023-03-12T04:01:03.091Z,8.90
2023-03-12T04:02:03.096Z,8.20
2023-03-12T04:03:03.191Z,8.30
2023-03-12T04:04:03.018Z,8.40
2023-03-12T04:05:03.121Z,8.10
2023-03-12T04:06:03.105Z,8.10
2023-03-12T04:07:03.050Z,8.20
2023-03-12T04:08:03.131Z,7.80
2023-03-12T04:09:03.021Z,7.90
2023-03-12T04:10:02.971Z,7.90
2023-03-12T04:11:03.033Z,7.80
2023-03-12T04:12:03.011Z,7.60
2023-03-12T04:13:03.014Z,7.30
2023-03-12T04:14:03.148Z,7.60
2023-03-12T04:15:02.903Z,7.50
2023-03-12T04:16:02.951Z,8.00
2023-03-12T04:17:02.992Z,7.70
2023-03-12T04:18:02.906Z,7.00
2023-03-12T04:19:02.931Z,7.10
2023-03-12T04:20:43.627Z,6.80
2023-03-12T04:21:03.853Z,7.40
2023-03-12T04:22:02.828Z,6.70
2023-03-12T04:23:02.820Z,6.80
2023-03-12T04:24:02.806Z,6.10
2023-03-12T04:25:02.832Z,5.60
2023-03-12T04:26:02.740Z,4.90
2023-03-12T04:27:02.775Z,5.80
2023-03-12T04:28:02.708Z,5.60
2023-03-12T04:29:02.704Z,5.80
2023-03-12T04:30:02.732Z,5.70
2023-03-12T04:31:02.752Z,5.60
2023-03-12T04:32:02.696Z,6.60
2023-03-12T04:33:02.708Z,6.30
2023-03-12T04:34:02.629Z,6.80
2023-03-12T04:35:02.596Z,6.60
2023-03-12T04:36:02.745Z,6.40
2023-03-12T04:37:02.636Z,6.40
2023-03-12T04:38:02.566Z,7.30
2023-03-12T04:39:02.628Z,6.70
2023-03-12T04:40:02.557Z,7.10
2023-03-12T04:41:02.561Z,6.60
2023-03-12T04:42:02.528Z,7.30
2023-03-12T04:43:02.610Z,6.60
2023-03-12T04:44:02.478Z,6.90
2023-03-12T04:45:02.498Z,6.60
2023-03-12T04:46:02.496Z,5.90
2023-03-12T04:47:02.551Z,5.70
2023-03-12T04:48:02.482Z,5.80
2023-03-12T04:49:02.471Z,5.30
2023-03-12T04:50:02.476Z,6.00
2023-03-12T04:51:02.419Z,5.40
2023-03-12T04:52:02.409Z,6.20
2023-03-12T04:53:02.534Z,7.00
2023-03-12T04:54:02.410Z,5.70
2023-03-12T04:55:02.420Z,5.70
2023-03-12T04:56:02.401Z,5.30
2023-03-12T04:57:02.351Z,5.50
2023-03-12T04:58:02.389Z,5.40
2023-03-12T04:59:02.371Z,6.20
2023-03-12T05:00:02.288Z,5.50
2023-03-12T05:01:02.290Z,5.40
2023-03-12T05:02:02.287Z,6.00
2023-03-12T05:03:02.435Z,5.70
2023-03-12T05:04:02.273Z,5.90
2023-03-12T05:05:02.211Z,5.80
2023-03-12T05:06:02.239Z,5.50
2023-03-12T05:07:02.266Z,5.60
2023-03-12T05:08:02.215Z,5.30
2023-03-12T05:09:02.170Z,5.60
2023-03-12T05:10:02.249Z,6.00
2023-03-12T05:11:02.178Z,6.50
2023-03-12T05:12:02.152Z,5.80
2023-03-12T05:13:02.183Z,5.20
2023-03-12T05:14:02.149Z,5.20
2023-03-12T05:15:02.083Z,4.90
2023-03-12T05:16:02.186Z,5.50
2023-03-12T05:17:02.111Z,5.20
2023-03-12T05:18:02.055Z,5.10
2023-03-12T05:19:02.114Z,5.80
2023-03-12T05:20:02.033Z,5.20
2023-03-12T05:21:02.011Z,5.20
2023-03-12T05:22:02.066Z,5.10
2023-03-12T05:23:02.005Z,5.20
2023-03-12T05:24:01.976Z,5.00
2023-03-12T05:25:02.016Z,4.90
2023-03-12T05:26:01.992Z,4.90
2023-03-12T05:27:02.040Z,5.00
2023-03-12T05:28:01.965Z,4.80
2023-03-12T05:29:02.230Z,4.80
2023-03-12T05:30:01.894Z,4.90
2023-03-12T05:31:02.005Z,5.20
2023-03-12T05:32:01.916Z,5.00
2023-03-12T05:33:01.968Z,5.20
2023-03-12T05:34:01.885Z,5.00
2023-03-12T05:35:01.819Z,5.30
2023-03-12T05:36:01.816Z,5.20
2023-03-12T05:37:01.798Z,4.90
2023-03-12T05:38:01.855Z,5.10
2023-03-12T05:39:01.825Z,5.20
2023-03-12T05:40:01.754Z,4.40
2023-03-12T05:41:01.740Z,5.90
2023-03-12T05:42:01.823Z,4.70
2023-03-12T05:43:01.743Z,4.60
2023-03-12T05:44:01.778Z,4.40
2023-03-12T05:45:01.707Z,4.50
2023-03-12T05:46:01.768Z,3.70
2023-03-12T05:47:01.695Z,4.60
2023-03-12T05:48:01.718Z,5.10
2023-03-12T05:49:01.676Z,5.00
2023-03-12T05:50:01.684Z,4.80
2023-03-12T05:51:01.662Z,4.40
2023-03-12T05:52:01.612Z,4.70
2023-03-12T05:53:01.612Z,4.80
2023-03-12T05:54:01.637Z,4.10
2023-03-12T05:55:01.614Z,4.30
2023-03-12T05:56:01.549Z,4.40
2023-03-12T05:57:01.616Z,4.90
2023-03-12T05:58:01.540Z,5.70
2023-03-12T05:59:01.490Z,5.80
2023-03-12T06:00:01.614Z,5.70
2023-03-12T06:01:01.469Z,6.30
2023-03-12T06:02:01.528Z,5.00
2023-03-12T06:03:01.532Z,5.30
2023-03-12T06:04:01.450Z,5.60
2023-03-12T06:05:01.461Z,5.30
2023-03-12T06:06:01.468Z,5.80
2023-03-12T06:07:01.537Z,4.70
2023-03-12T06:08:01.423Z,4.80
2023-03-12T06:09:01.353Z,4.60
2023-03-12T06:10:01.364Z,3.80
2023-03-12T06:11:01.364Z,4.10
2023-03-12T06:12:01.627Z,3.90
2023-03-12T06:13:01.337Z,4.40
2023-03-12T06:14:01.489Z,4.10
2023-03-12T06:15:01.292Z,4.00
2023-03-12T06:16:01.353Z,3.90
2023-03-12T06:17:01.355Z,3.80
2023-03-12T06:18:01.279Z,4.00
2023-03-12T06:19:01.291Z,4.20
2023-03-12T06:20:01.274Z,3.80
2023-03-12T06:21:01.222Z,3.50
2023-03-12T06:22:01.220Z,3.70
2023-03-12T06:23:01.248Z,3.50
2023-03-12T06:24:01.222Z,3.70
2023-03-12T06:25:01.143Z,3.80
2023-03-12T06:26:01.129Z,3.70
2023-03-12T06:27:01.218Z,3.50
2023-03-12T06:28:01.139Z,3.50
2023-03-12T06:29:01.175Z,3.50
2023-03-12T06:30:01.333Z,3.30
2023-03-12T06:31:01.160Z,3.70
2023-03-12T06:32:01.227Z,3.50
2023-03-12T06:33:01.090Z,3.40
2023-03-12T06:34:01.147Z,3.30
2023-03-12T06:35:27.308Z,3.40
2023-03-12T06:36:30.184Z,3.60
2023-03-12T06:37:02.106Z,3.70
2023-03-12T06:38:01.037Z,3.70
2023-03-12T06:39:06.076Z,3.70
2023-03-12T06:40:01.085Z,4.40
2023-03-12T06:41:00.974Z,3.50
2023-03-12T06:42:01.004Z,3.70
2023-03-12T06:43:01.081Z,3.70
2023-03-12T06:44:00.966Z,3.20
2023-03-12T06:45:00.929Z,3.80
2023-03-12T06:46:01.011Z,3.70
2023-03-12T06:48:10.340Z,3.80
2023-03-12T06:49:10.298Z,3.90
2023-03-12T06:50:10.424Z,4.70
2023-03-12T06:51:10.240Z,4.40
2023-03-12T06:52:10.369Z,3.80
2023-03-12T06:53:10.272Z,4.50
2023-03-12T06:54:10.246Z,4.60
2023-03-12T06:55:10.405Z,4.40
2023-03-12T06:56:10.260Z,4.70
2023-03-12T06:57:10.172Z,4.30
2023-03-12T06:58:10.236Z,3.50
2023-03-12T06:59:10.187Z,4.20
2023-03-12T07:00:10.134Z,4.00
2023-03-12T07:01:10.133Z,4.10
2023-03-12T07:02:10.176Z,3.90
2023-03-12T07:03:10.097Z,3.90
2023-03-12T07:04:10.179Z,3.80
2023-03-12T07:05:10.200Z,4.00
2023-03-12T07:06:10.035Z,3.60
2023-03-12T07:07:10.085Z,3.90
2023-03-12T07:08:10.078Z,3.70
2023-03-12T07:09:10.000Z,3.80
2023-03-12T07:10:10.030Z,4.00
2023-03-12T07:11:10.011Z,4.00
2023-03-12T07:12:09.991Z,3.90
2023-03-12T07:13:09.973Z,3.60
2023-03-12T07:14:10.000Z,4.20
2023-03-12T07:15:10.008Z,4.60
2023-03-12T07:16:10.135Z,3.50
2023-03-12T07:17:09.900Z,3.80
2023-03-12T07:18:09.931Z,3.40
2023-03-12T07:19:09.919Z,3.80
2023-03-12T07:20:09.882Z,4.60
2023-03-12T07:21:09.883Z,4.00
2023-03-12T07:22:09.850Z,4.20
2023-03-12T07:23:09.835Z,3.50
2023-03-12T07:24:09.823Z,3.60
2023-03-12T07:25:09.794Z,3.60
2023-03-12T07:26:09.821Z,3.90
2023-03-12T07:27:09.851Z,3.40
2023-03-12T07:28:09.792Z,3.50
2023-03-12T07:29:09.760Z,3.70
2023-03-12T07:30:09.738Z,3.60
2023-03-12T07:31:09.774Z,3.30
2023-03-12T07:32:09.804Z,3.90
2023-03-12T07:33:09.853Z,3.70
2023-03-12T07:34:09.883Z,3.40
2023-03-12T07:35:09.743Z,3.90
2023-03-12T07:36:09.805Z,3.70
2023-03-12T07:37:09.643Z,3.80
2023-03-12T07:38:09.773Z,3.90
2023-03-12T07:39:09.664Z,4.10
2023-03-12T07:40:09.696Z,4.00
2023-03-12T07:41:09.734Z,3.40
2023-03-12T07:42:09.618Z,3.80
2023-03-12T07:43:09.551Z,4.00
2023-03-12T07:44:09.739Z,4.00
2023-03-12T07:45:09.608Z,3.40
2023-03-12T07:46:09.595Z,4.10
2023-03-12T07:47:22.835Z,3.30
2023-03-12T07:48:10.667Z,3.20
2023-03-12T07:49:09.486Z,3.50
2023-03-12T07:50:09.561Z,3.40
2023-03-12T07:51:09.512Z,3.60
2023-03-12T07:52:09.514Z,3.60
2023-03-12T07:53:09.460Z,3.80
2023-03-12T07:54:09.425Z,3.70
2023-03-12T07:55:09.573Z,3.20
2023-03-12T07:56:09.465Z,3.60
2023-03-12T07:57:09.692Z,3.80
2023-03-12T07:58:09.501Z,4.10
2023-03-12T07:59:09.529Z,3.70
2023-03-12T08:00:09.386Z,4.00
2023-03-12T08:01:09.382Z,4.30
2023-03-12T08:02:09.399Z,3.50
2023-03-12T08:03:09.480Z,4.00
2023-03-12T08:04:09.402Z,3.90
2023-03-12T08:05:09.320Z,3.70
2023-03-12T08:06:09.292Z,3.70
2023-03-12T08:07:09.516Z,3.90
2023-03-12T08:08:09.346Z,3.70
2023-03-12T08:09:09.210Z,3.70
2023-03-12T08:10:09.279Z,3.30
2023-03-12T08:11:09.241Z,3.80
2023-03-12T08:12:09.203Z,4.20
2023-03-12T08:13:09.211Z,3.60
2023-03-12T08:14:09.197Z,3.90
2023-03-12T08:15:09.176Z,3.70
2023-03-12T08:16:09.654Z,3.60
2023-03-12T08:17:09.148Z,3.70
2023-03-12T08:18:09.181Z,3.40
2023-03-12T08:19:09.127Z,3.70
2023-03-12T08:20:09.123Z,3.60
2023-03-12T08:21:09.047Z,3.60
2023-03-12T08:22:09.040Z,3.50
2023-03-12T08:23:09.093Z,3.40
2023-03-12T08:24:09.036Z,3.40
2023-03-12T08:25:09.073Z,3.40
2023-03-12T08:26:09.089Z,3.80
2023-03-12T08:27:09.054Z,3.70
2023-03-12T08:28:08.985Z,4.10
2023-03-12T08:29:09.010Z,3.90
2023-03-12T08:30:08.983Z,3.50
2023-03-12T08:31:08.907Z,3.20
2023-03-12T08:32:09.075Z,3.60
2023-03-12T08:33:09.061Z,3.60
2023-03-12T08:34:08.910Z,3.60
2023-03-12T08:35:09.070Z,3.60
2023-03-12T08:36:08.866Z,3.50
2023-03-12T08:37:08.890Z,3.80
2023-03-12T08:38:08.882Z,3.60
2023-03-12T08:39:08.885Z,3.80
2023-03-12T08:40:08.807Z,4.00
2023-03-12T08:41:08.848Z,3.90
2023-03-12T08:42:08.816Z,4.20
2023-03-12T08:43:08.757Z,3.90
2023-03-12T08:44:08.765Z,4.20
2023-03-12T08:45:08.794Z,4.60
2023-03-12T08:46:10.994Z,4.10
2023-03-12T08:47:08.744Z,4.30
2023-03-12T08:48:08.845Z,4.40
2023-03-12T08:49:08.699Z,4.20
2023-03-12T08:50:08.707Z,4.30
2023-03-12T08:51:08.728Z,4.40
2023-03-12T08:52:08.658Z,4.40
2023-03-12T08:53:08.639Z,4.80
2023-03-12T08:54:08.678Z,4.40
2023-03-12T08:55:08.624Z,4.10
2023-03-12T08:56:08.620Z,3.50
2023-03-12T08:57:08.690Z,4.60
2023-03-12T08:58:08.583Z,4.80
2023-03-12T08:59:08.587Z,5.10
2023-03-12T09:00:08.546Z,4.60
2023-03-12T09:01:08.608Z,4.40
2023-03-12T09:02:08.553Z,4.60
2023-03-12T09:03:08.577Z,4.90
2023-03-12T09:04:08.575Z,5.20
2023-03-12T09:05:08.485Z,5.70
2023-03-12T09:06:08.554Z,5.60
2023-03-12T09:07:08.467Z,4.80
2023-03-12T09:08:08.512Z,5.00
2023-03-12T09:09:08.458Z,5.70
2023-03-12T09:10:08.524Z,5.50
2023-03-12T09:11:08.397Z,5.80
2023-03-12T09:12:08.456Z,6.00
2023-03-12T09:13:08.449Z,5.20
2023-03-12T09:14:53.908Z,5.00
2023-03-12T09:15:09.382Z,6.20
2023-03-12T09:16:08.395Z,5.50
2023-03-12T09:17:08.320Z,6.40
2023-03-12T09:18:08.337Z,6.00
2023-03-12T09:19:08.482Z,5.80
2023-03-12T09:20:08.453Z,6.30
2023-03-12T09:21:08.267Z,6.70
2023-03-12T09:22:08.263Z,6.70
2023-03-12T09:23:08.282Z,6.20
2023-03-12T09:24:08.258Z,6.40
2023-03-12T09:25:08.230Z,6.20
2023-03-12T09:26:08.271Z,6.30
2023-03-12T09:27:08.515Z,6.30
2023-03-12T09:28:08.252Z,6.20
2023-03-12T09:29:08.183Z,6.20
2023-03-12T09:30:08.183Z,6.20
2023-03-12T09:31:08.225Z,5.80
2023-03-12T09:32:08.220Z,6.30
2023-03-12T09:33:08.144Z,6.80
2023-03-12T09:34:08.116Z,6.40
2023-03-12T09:35:08.137Z,6.70
2023-03-12T09:36:08.102Z,6.20
2023-03-12T09:37:08.050Z,6.70
2023-03-12T09:38:08.056Z,7.30
2023-03-12T09:39:08.026Z,7.10
2023-03-12T09:40:08.042Z,6.80
2023-03-12T09:41:08.038Z,7.10
2023-03-12T09:42:07.978Z,6.90
2023-03-12T09:43:07.994Z,7.50
2023-03-12T09:44:07.988Z,7.30
2023-03-12T09:45:07.976Z,8.00
2023-03-12T09:46:08.047Z,7.60
2023-03-12T09:47:08.008Z,7.30
2023-03-12T09:48:07.903Z,7.90
2023-03-12T09:49:07.904Z,8.00
2023-03-12T09:50:07.922Z,8.00
2023-03-12T09:51:07.856Z,8.60
2023-03-12T09:52:07.885Z,8.70
2023-03-12T09:53:07.922Z,7.90
2023-03-12T09:54:07.869Z,8.70
2023-03-12T09:55:07.857Z,8.30
2023-03-12T09:56:07.853Z,8.10
2023-03-12T09:57:07.810Z,8.40
2023-03-12T09:58:07.788Z,8.10
2023-03-12T09:59:07.821Z,7.20
2023-03-12T10:00:07.771Z,7.00
2023-03-12T10:01:07.816Z,7.10
2023-03-12T10:02:07.805Z,8.00
2023-03-12T10:03:07.808Z,7.00
2023-03-12T10:04:07.745Z,7.00
2023-03-12T10:05:07.743Z,7.00
2023-03-12T10:06:07.726Z,7.50
2023-03-12T10:07:07.695Z,7.10
2023-03-12T10:08:23.016Z,7.10
2023-03-12T10:09:08.693Z,5.40
2023-03-12T10:10:07.598Z,6.40
2023-03-12T10:11:07.613Z,6.40
2023-03-12T10:12:07.595Z,7.10
2023-03-12T10:13:07.599Z,6.20
2023-03-12T10:14:07.609Z,6.60
2023-03-12T10:15:08.527Z,7.40
2023-03-12T10:16:07.600Z,7.80
2023-03-12T10:17:07.540Z,7.30
2023-03-12T10:18:07.653Z,8.20
2023-03-12T10:19:07.578Z,7.60
2023-03-12T10:20:07.481Z,8.30
2023-03-12T10:21:07.511Z,7.50
2023-03-12T10:22:07.457Z,7.80
2023-03-12T10:23:07.428Z,7.60
2023-03-12T10:24:07.454Z,6.70
2023-03-12T10:25:07.468Z,7.20
2023-03-12T10:26:07.407Z,7.40
2023-03-12T10:27:07.437Z,8.00
2023-03-12T10:28:07.415Z,8.10
2023-03-12T10:29:07.381Z,8.10
2023-03-12T10:30:07.414Z,7.80
2023-03-12T10:31:07.420Z,8.40
2023-03-12T10:32:07.347Z,8.70
2023-03-12T10:33:07.311Z,8.70
2023-03-12T10:34:07.437Z,9.00
2023-03-12T10:35:07.285Z,8.60
2023-03-12T10:36:07.405Z,6.70
2023-03-12T10:37:07.252Z,7.20
2023-03-12T10:38:07.347Z,7.70
2023-03-12T10:39:07.234Z,8.20
2023-03-12T10:40:07.307Z,8.30
2023-03-12T10:41:07.223Z,11.20
2023-03-12T10:42:07.206Z,7.90
2023-03-12T10:43:07.209Z,8.30
2023-03-12T10:44:07.195Z,7.00
2023-03-12T10:45:07.173Z,7.50
2023-03-12T10:46:07.219Z,7.50
2023-03-12T10:47:07.165Z,7.10
2023-03-12T10:48:07.126Z,7.10
2023-03-12T10:49:07.113Z,7.50
2023-03-12T10:50:07.082Z,7.40
2023-03-12T10:51:07.092Z,7.40
2023-03-12T10:52:07.062Z,8.10
2023-03-12T10:53:07.047Z,8.40
2023-03-12T10:54:07.084Z,7.90
2023-03-12T10:55:07.133Z,7.80
2023-03-12T10:56:06.992Z,7.90
2023-03-12T10:57:07.012Z,8.10
2023-03-12T10:58:07.055Z,8.00
2023-03-12T10:59:06.953Z,7.90
2023-03-12T11:00:07.086Z,8.30
2023-03-12T11:01:06.952Z,8.40
2023-03-12T11:02:06.976Z,8.90
2023-03-12T11:03:06.927Z,9.10
2023-03-12T11:04:07.032Z,8.70
2023-03-12T11:05:06.900Z,9.00
2023-03-12T11:06:07.020Z,9.30
2023-03-12T11:07:06.855Z,9.40
2023-03-12T11:08:06.883Z,9.10
2023-03-12T11:09:22.108Z,9.50
2023-03-12T11:10:07.894Z,8.20
2023-03-12T11:11:06.819Z,9.00
2023-03-12T11:12:06.822Z,8.90
2023-03-12T11:13:06.780Z,8.10
2023-03-12T11:14:06.849Z,8.40
2023-03-12T11:15:06.783Z,7.50
2023-03-12T11:16:06.809Z,8.00
2023-03-12T11:17:06.724Z,7.80
2023-03-12T11:18:06.753Z,7.60
2023-03-12T11:19:06.712Z,7.40
2023-03-12T11:20:06.694Z,7.50
2023-03-12T11:21:06.719Z,8.50
2023-03-12T11:22:06.701Z,8.30
2023-03-12T11:23:06.646Z,8.20
2023-03-12T11:24:06.659Z,7.40
2023-03-12T11:25:06.699Z,7.10
2023-03-12T11:26:06.602Z,7.60
2023-03-12T11:27:06.797Z,8.40
2023-03-12T11:28:06.635Z,7.70
2023-03-12T11:29:06.638Z,8.50
2023-03-12T11:30:06.648Z,8.00
2023-03-12T11:31:06.624Z,8.70
2023-03-12T11:32:06.568Z,8.20
2023-03-12T11:33:06.531Z,8.40
2023-03-12T11:34:06.554Z,8.20
2023-03-12T11:35:06.487Z,8.10
2023-03-12T11:36:06.561Z,8.20
2023-03-12T11:37:06.530Z,7.40
2023-03-12T11:38:06.454Z,7.20
2023-03-12T11:39:06.434Z,6.80
2023-03-12T11:40:06.522Z,7.00
2023-03-12T11:41:06.426Z,7.00
2023-03-12T11:42:06.399Z,6.80
2023-03-12T11:43:06.468Z,7.00
2023-03-12T11:44:06.382Z,6.70
2023-03-12T11:45:06.467Z,6.90
2023-03-12T11:46:06.397Z,6.50
2023-03-12T11:47:06.326Z,6.90
2023-03-12T11:48:06.313Z,6.90
2023-03-12T11:49:06.416Z,6.40
2023-03-12T11:50:06.300Z,6.20
2023-03-12T11:51:06.320Z,6.10
2023-03-12T11:52:06.409Z,5.80
2023-03-12T11:53:06.277Z,6.20
2023-03-12T11:54:06.232Z,5.60
2023-03-12T11:55:06.242Z,6.40
2023-03-12T11:56:06.226Z,6.20
2023-03-12T11:57:06.197Z,6.00
2023-03-12T11:58:06.202Z,6.10
2023-03-12T11:59:06.170Z,6.40
2023-03-12T12:00:06.193Z,6.20
2023-03-12T12:01:06.152Z,6.10
2023-03-12T12:02:06.260Z,6.30
2023-03-12T12:03:06.258Z,6.00
2023-03-12T12:04:06.123Z,5.90
2023-03-12T12:05:06.128Z,6.10
2023-03-12T12:06:06.119Z,6.30
2023-03-12T12:07:06.072Z,6.00
2023-03-12T12:08:06.117Z,6.30
2023-03-12T12:09:06.115Z,6.10
2023-03-12T12:10:06.079Z,5.70
2023-03-12T12:11:06.128Z,5.90
2023-03-12T12:12:06.014Z,6.60
2023-03-12T12:13:06.019Z,6.20
2023-03-12T12:14:05.987Z,6.20
2023-03-12T12:15:06.033Z,6.20
2023-03-12T12:16:06.013Z,6.50
2023-03-12T12:17:05.990Z,6.10
2023-03-12T12:18:05.972Z,5.80
2023-03-12T12:19:05.991Z,6.30
2023-03-12T12:20:05.904Z,6.50
2023-03-12T12:21:05.953Z,6.20
2023-03-12T12:22:05.935Z,6.50
2023-03-12T12:23:05.886Z,6.50
2023-03-12T12:24:05.919Z,6.50
2023-03-12T12:25:05.846Z,5.80
2023-03-12T12:26:05.799Z,6.20
2023-03-12T12:27:05.841Z,6.30
2023-03-12T12:28:05.787Z,6.20
2023-03-12T12:29:05.793Z,7.10
2023-03-12T12:30:05.979Z,6.20
2023-03-12T12:31:05.821Z,6.40
2023-03-12T12:32:05.782Z,6.50
2023-03-12T12:33:05.871Z,7.00
2023-03-12T12:34:05.707Z,6.70
2023-03-12T12:35:05.784Z,7.00
2023-03-12T12:36:05.969Z,7.60
2023-03-12T12:37:05.729Z,6.90
2023-03-12T12:38:05.658Z,6.70
2023-03-12T12:39:05.833Z,6.50
2023-03-12T12:40:05.696Z,6.90
2023-03-12T12:41:05.657Z,7.10
2023-03-12T12:42:05.781Z,6.50
2023-03-12T12:43:05.671Z,6.30
2023-03-12T12:44:05.646Z,7.00
2023-03-12T12:45:06.007Z,6.90
2023-03-12T12:46:05.561Z,6.60
2023-03-12T12:47:05.660Z,7.00
2023-03-12T12:48:30.637Z,6.90
2023-03-12T12:49:05.488Z,6.30
2023-03-12T12:50:05.553Z,6.60
2023-03-12T12:51:08.641Z,6.60
2023-03-12T12:52:05.544Z,6.40
2023-03-12T12:53:05.493Z,6.70
2023-03-12T12:54:05.747Z,6.40
2023-03-12T12:55:05.498Z,6.50
2023-03-12T12:56:05.415Z,6.00
2023-03-12T12:57:05.505Z,6.90
2023-03-12T12:58:05.419Z,6.80
2023-03-12T12:59:05.429Z,6.40
2023-03-12T13:00:05.589Z,6.40
2023-03-12T13:01:05.519Z,6.40
2023-03-12T13:02:05.357Z,7.30
2023-03-12T13:03:05.394Z,6.60
2023-03-12T13:04:05.511Z,6.50
2023-03-12T13:05:17.163Z,6.70
2023-03-12T13:06:05.384Z,6.00
2023-03-12T13:07:20.587Z,6.80
2023-03-12T13:08:05.324Z,6.80
2023-03-12T13:09:05.268Z,6.40
2023-03-12T13:10:05.330Z,7.20
2023-03-12T13:11:16.581Z,6.50
2023-03-12T13:12:06.313Z,7.00
2023-03-12T13:13:05.274Z,6.70
2023-03-12T13:14:05.317Z,6.50
2023-03-12T13:15:06.139Z,6.30
2023-03-12T13:16:05.248Z,6.00
2023-03-12T13:17:05.174Z,6.70
2023-03-12T13:18:23.926Z,6.30
2023-03-12T13:19:06.111Z,6.10